createdAt,value
2018-06-30T00:00:08.053Z,14.70
2018-06-30T00:02:37.303Z,15.93
2018-06-30T00:05:05.792Z,16.30
2018-06-30T00:07:34.267Z,16.50
2018-06-30T00:10:02.729Z,16.20
2018-06-30T00:12:31.348Z,16.27
2018-06-30T00:14:59.792Z,17.10
2018-06-30T00:17:28.274Z,16.00
2018-06-30T00:19:56.733Z,16.27
2018-06-30T00:22:25.206Z,16.23
2018-06-30T00:24:53.764Z,15.20
2018-06-30T00:27:28.464Z,15.80
2018-06-30T00:29:58.080Z,15.07
2018-06-30T00:32:26.960Z,15.70
2018-06-30T00:34:55.168Z,16.27
2018-06-30T00:37:23.659Z,14.70
2018-06-30T00:39:52.188Z,15.03
2018-06-30T00:42:20.388Z,14.60
2018-06-30T00:44:48.904Z,15.23
2018-06-30T00:47:17.400Z,14.93
2018-06-30T00:49:45.904Z,14.20
2018-06-30T00:52:14.438Z,13.47
2018-06-30T00:54:42.955Z,13.83
2018-06-30T00:57:11.452Z,14.30
2018-06-30T00:59:39.993Z,14.77
2018-06-30T01:02:08.500Z,14.60
2018-06-30T01:04:37.064Z,12.90
2018-06-30T01:07:05.696Z,14.07
2018-06-30T01:09:34.237Z,12.80
2018-06-30T01:12:02.744Z,13.63
2018-06-30T01:14:31.256Z,13.90
2018-06-30T01:16:59.758Z,12.37
2018-06-30T01:19:28.367Z,13.60
2018-06-30T01:21:56.884Z,14.10
2018-06-30T01:24:25.400Z,15.13
2018-06-30T01:26:53.926Z,13.90
2018-06-30T01:29:22.440Z,13.17
2018-06-30T01:31:50.939Z,12.10
2018-06-30T01:34:19.456Z,13.67
2018-06-30T01:36:47.956Z,14.63
2018-06-30T01:39:16.489Z,13.27
2018-06-30T01:41:44.985Z,14.10
2018-06-30T01:44:13.500Z,12.50
2018-06-30T01:46:41.992Z,12.83
2018-06-30T01:49:10.512Z,13.70
2018-06-30T01:51:39.020Z,13.87
2018-06-30T01:54:07.544Z,14.20
2018-06-30T01:56:36.072Z,13.50
2018-06-30T01:59:04.650Z,12.30
2018-06-30T02:01:33.136Z,12.77
2018-06-30T02:04:01.652Z,14.10
2018-06-30T02:06:30.220Z,11.43
2018-06-30T02:08:58.755Z,12.43
2018-06-30T02:11:27.323Z,12.67
2018-06-30T02:13:55.840Z,12.87
2018-06-30T02:16:24.352Z,12.93
2018-06-30T02:18:52.867Z,12.60
2018-06-30T02:21:21.389Z,11.93
2018-06-30T02:23:49.901Z,11.63
2018-06-30T02:26:18.404Z,11.10
2018-06-30T02:28:46.988Z,11.17
2018-06-30T02:31:15.513Z,11.00
2018-06-30T02:33:44.017Z,11.70
2018-06-30T02:36:12.609Z,14.10
2018-06-30T02:38:41.120Z,11.90
2018-06-30T02:41:09.883Z,10.80
2018-06-30T02:43:38.403Z,11.07
2018-06-30T02:46:07.094Z,11.17
2018-06-30T02:48:35.540Z,12.47
2018-06-30T02:51:04.070Z,12.93
2018-06-30T02:53:32.649Z,12.90
2018-06-30T02:56:01.168Z,12.33
2018-06-30T02:58:29.677Z,11.90
2018-06-30T03:00:58.217Z,12.53
2018-06-30T03:03:26.808Z,12.40
2018-06-30T03:05:55.328Z,10.80
2018-06-30T03:08:23.824Z,12.30
2018-06-30T03:10:52.416Z,11.63
2018-06-30T03:13:20.908Z,11.30
2018-06-30T03:15:49.549Z,11.27
2018-06-30T03:18:18.213Z,12.27
2018-06-30T03:20:46.732Z,12.33
2018-06-30T03:23:15.235Z,12.47
2018-06-30T03:25:43.776Z,11.80
2018-06-30T03:28:12.277Z,10.73
2018-06-30T03:30:40.822Z,11.40
2018-06-30T03:33:09.321Z,11.20
2018-06-30T03:35:37.835Z,10.27
2018-06-30T03:38:06.443Z,11.33
2018-06-30T03:40:34.956Z,11.90
2018-06-30T03:43:03.464Z,10.80
2018-06-30T03:45:32.008Z,11.80
2018-06-30T03:48:00.504Z,11.27
2018-06-30T03:50:29.214Z,10.80
2018-06-30T03:52:57.931Z,10.67
2018-06-30T03:55:26.448Z,10.80
2018-06-30T03:57:55.103Z,11.13
2018-06-30T04:00:23.654Z,10.43
2018-06-30T04:02:52.159Z,10.23
2018-06-30T04:05:21.107Z,11.10
2018-06-30T04:07:49.688Z,11.27
2018-06-30T04:10:18.261Z,12.90
2018-06-30T04:12:46.755Z,12.53
2018-06-30T04:15:15.277Z,12.97
2018-06-30T04:17:43.756Z,13.27
2018-06-30T04:20:12.279Z,13.63
2018-06-30T04:22:40.785Z,14.03
2018-06-30T04:25:09.332Z,13.10
2018-06-30T04:27:37.858Z,12.87
2018-06-30T04:30:06.571Z,12.83
2018-06-30T04:32:35.104Z,12.30
2018-06-30T04:35:03.600Z,14.03
2018-06-30T04:37:31.815Z,11.80
2018-06-30T04:40:00.308Z,12.03
2018-06-30T04:42:28.896Z,13.00
2018-06-30T04:44:57.428Z,13.53
2018-06-30T04:47:26.036Z,11.63
2018-06-30T04:49:54.532Z,11.23
2018-06-30T04:52:23.045Z,11.30
2018-06-30T04:54:51.532Z,11.27
2018-06-30T04:57:20.096Z,10.53
2018-06-30T04:59:48.624Z,10.90
2018-06-30T05:02:17.157Z,10.47
2018-06-30T05:04:45.684Z,10.90
2018-06-30T05:07:14.229Z,10.57
2018-06-30T05:09:42.716Z,11.10
2018-06-30T05:12:11.253Z,10.40
2018-06-30T05:14:39.768Z,10.63
2018-06-30T05:17:08.345Z,9.67
2018-06-30T05:19:36.876Z,9.27
2018-06-30T05:22:05.100Z,8.57
2018-06-30T05:24:33.629Z,8.80
2018-06-30T05:27:02.132Z,9.57
2018-06-30T05:29:30.287Z,9.13
2018-06-30T05:31:58.861Z,9.60
2018-06-30T05:34:27.349Z,9.70
2018-06-30T05:36:57.894Z,9.63
2018-06-30T05:39:26.415Z,9.60
2018-06-30T05:41:54.957Z,7.93
2018-06-30T05:44:23.447Z,10.60
2018-06-30T05:46:51.665Z,8.33
2018-06-30T05:49:20.568Z,8.03
2018-06-30T05:51:49.118Z,9.30
2018-06-30T05:54:17.612Z,8.63
2018-06-30T05:56:46.135Z,9.27
2018-06-30T05:59:14.765Z,8.97
2018-06-30T06:01:43.582Z,8.57
2018-06-30T06:04:12.084Z,8.20
2018-06-30T06:06:40.591Z,8.23
2018-06-30T06:09:10.833Z,9.17
2018-06-30T06:11:39.432Z,9.07
2018-06-30T06:14:07.956Z,8.97
2018-06-30T06:16:36.869Z,9.10
2018-06-30T06:19:05.380Z,8.90
2018-06-30T06:21:33.909Z,8.90
2018-06-30T06:24:02.406Z,9.00
2018-06-30T06:26:30.939Z,8.97
2018-06-30T06:28:59.421Z,8.73
2018-06-30T06:31:27.968Z,9.87
2018-06-30T06:33:56.898Z,8.33
2018-06-30T06:36:25.517Z,9.23
2018-06-30T06:38:54.032Z,8.63
2018-06-30T06:41:22.451Z,8.40
2018-06-30T06:43:50.969Z,9.57
2018-06-30T06:46:19.477Z,9.73
2018-06-30T06:48:47.663Z,10.80
2018-06-30T06:51:16.173Z,12.33
2018-06-30T06:53:44.704Z,12.73
2018-06-30T06:56:13.224Z,13.70
2018-06-30T06:58:41.821Z,13.80
2018-06-30T07:01:10.325Z,17.23
2018-06-30T07:03:38.840Z,15.30
2018-06-30T07:06:10.626Z,14.40
2018-06-30T07:08:38.887Z,14.67
2018-06-30T07:11:07.403Z,16.57
2018-06-30T07:19:22.102Z,15.83
2018-06-30T07:21:52.108Z,15.97
2018-06-30T07:24:20.633Z,16.00
2018-06-30T07:26:49.107Z,14.83
2018-06-30T07:29:17.724Z,16.20
2018-06-30T07:31:46.245Z,15.70
2018-06-30T07:34:14.752Z,15.20
2018-06-30T07:36:43.244Z,16.07
2018-06-30T07:39:11.773Z,14.30
2018-06-30T07:41:41.284Z,14.03
2018-06-30T07:44:09.801Z,14.63
2018-06-30T07:46:38.357Z,13.40
2018-06-30T07:49:06.884Z,15.10
2018-06-30T07:51:35.392Z,15.80
2018-06-30T07:54:03.916Z,14.63
2018-06-30T07:56:32.405Z,16.00
2018-06-30T07:59:00.910Z,15.60
2018-06-30T08:01:29.372Z,16.00
2018-06-30T08:03:57.884Z,16.20
2018-06-30T08:06:26.409Z,16.20
2018-06-30T08:08:54.872Z,16.00
2018-06-30T08:11:23.356Z,15.37
2018-06-30T08:13:52.430Z,15.90
2018-06-30T08:16:20.878Z,16.63
2018-06-30T08:18:49.440Z,14.20
2018-06-30T08:21:17.909Z,16.00
2018-06-30T08:23:46.460Z,15.40
2018-06-30T08:26:15.223Z,15.40
2018-06-30T08:28:43.714Z,17.40
2018-06-30T08:31:12.200Z,15.33
2018-06-30T08:33:40.693Z,16.20
2018-06-30T08:36:09.363Z,18.50
2018-06-30T08:38:37.828Z,16.60
2018-06-30T08:41:06.301Z,20.43
2018-06-30T08:43:34.772Z,15.60
2018-06-30T08:46:03.249Z,14.80
2018-06-30T08:48:31.837Z,16.80
2018-06-30T08:51:00.280Z,15.17
2018-06-30T08:53:28.813Z,15.20
2018-06-30T08:55:57.265Z,17.20
2018-06-30T08:58:25.724Z,16.40
2018-06-30T09:00:54.209Z,14.30
2018-06-30T09:03:22.725Z,12.60
2018-06-30T09:05:51.202Z,14.03
2018-06-30T09:08:19.682Z,13.20
2018-06-30T09:10:49.283Z,13.03
2018-06-30T09:13:17.780Z,12.80
2018-06-30T09:15:46.240Z,13.10
2018-06-30T09:18:14.697Z,11.60
2018-06-30T09:20:43.165Z,11.60
2018-06-30T09:23:11.624Z,10.90
2018-06-30T09:25:40.089Z,10.23
2018-06-30T09:28:08.581Z,10.80
2018-06-30T09:30:37.052Z,9.13
2018-06-30T09:33:05.524Z,8.70
2018-06-30T09:35:34.017Z,8.50
2018-06-30T09:38:02.464Z,8.77
2018-06-30T09:40:30.920Z,9.20
2018-06-30T09:42:59.385Z,8.20
2018-06-30T09:45:27.852Z,8.60
2018-06-30T09:47:56.301Z,9.37
2018-06-30T09:50:24.808Z,9.43
2018-06-30T09:52:53.372Z,8.00
2018-06-30T09:55:21.848Z,8.77
2018-06-30T09:57:50.296Z,8.80
2018-06-30T10:00:24.167Z,11.90
2018-06-30T10:02:52.620Z,10.60
2018-06-30T10:05:21.369Z,10.27
2018-06-30T10:07:49.837Z,9.80
2018-06-30T10:10:18.513Z,9.33
2018-06-30T10:12:47.074Z,8.97
2018-06-30T10:15:15.548Z,8.57
2018-06-30T10:17:44.237Z,8.33
2018-06-30T10:20:12.717Z,7.40
2018-06-30T10:22:41.153Z,7.73
2018-06-30T10:25:09.617Z,6.30
2018-06-30T10:27:38.050Z,5.63
2018-06-30T10:30:06.673Z,4.43
2018-06-30T10:32:35.112Z,5.07
2018-06-30T10:35:03.656Z,4.20
2018-06-30T10:37:32.391Z,4.70
2018-06-30T10:40:00.848Z,3.97
2018-06-30T10:42:29.324Z,4.83
2018-06-30T10:44:57.792Z,4.20
2018-06-30T10:47:26.264Z,4.50
2018-06-30T10:49:54.716Z,4.40
2018-06-30T10:52:23.173Z,4.40
2018-06-30T10:54:51.359Z,4.00
2018-06-30T10:57:19.804Z,3.97
2018-06-30T10:59:48.357Z,4.30
2018-06-30T11:02:16.916Z,3.97
2018-06-30T11:04:45.415Z,3.93
2018-06-30T11:07:13.941Z,4.00
2018-06-30T11:09:42.458Z,4.70
2018-06-30T11:12:12.064Z,4.10
2018-06-30T11:14:40.572Z,4.17
2018-06-30T11:17:09.068Z,4.40
2018-06-30T11:19:37.587Z,3.80
2018-06-30T11:22:06.234Z,3.90
2018-06-30T11:24:34.726Z,3.87
2018-06-30T11:27:03.281Z,3.53
2018-06-30T11:29:31.859Z,3.50
2018-06-30T11:32:00.299Z,4.07
2018-06-30T11:34:28.804Z,3.50
2018-06-30T11:36:57.317Z,3.60
2018-06-30T11:39:25.812Z,3.33
2018-06-30T11:41:54.329Z,3.33
2018-06-30T11:44:22.819Z,3.47
2018-06-30T11:46:51.320Z,3.33
2018-06-30T11:49:19.804Z,3.20
2018-06-30T11:51:48.301Z,3.73
2018-06-30T11:54:16.772Z,3.70
2018-06-30T11:56:45.281Z,3.50
2018-06-30T11:59:13.787Z,2.80
2018-06-30T12:01:42.673Z,2.60
2018-06-30T12:04:11.153Z,3.03
2018-06-30T12:06:39.677Z,2.97
2018-06-30T12:09:09.633Z,3.13
2018-06-30T12:11:38.416Z,2.70
2018-06-30T12:14:07.598Z,4.87
2018-06-30T12:16:36.165Z,3.80
2018-06-30T12:19:04.969Z,3.47
2018-06-30T12:21:33.524Z,3.20
2018-06-30T12:24:02.008Z,3.40
2018-06-30T12:26:30.552Z,3.27
2018-06-30T12:28:59.064Z,2.87
2018-06-30T12:31:27.568Z,2.97
2018-06-30T12:33:56.053Z,3.20
2018-06-30T12:36:24.544Z,3.23
2018-06-30T12:38:53.053Z,4.00
2018-06-30T12:41:21.557Z,3.60
2018-06-30T12:43:50.049Z,3.70
2018-06-30T12:46:18.588Z,3.27
2018-06-30T12:48:47.181Z,3.30
2018-06-30T12:51:15.704Z,3.03
2018-06-30T12:53:44.220Z,4.13
2018-06-30T12:56:54.630Z,3.33
2018-06-30T12:59:47.383Z,3.27
2018-06-30T13:02:21.364Z,3.23
2018-06-30T13:04:49.804Z,3.57
2018-06-30T13:07:18.306Z,3.97
2018-06-30T13:09:50.491Z,3.67
2018-06-30T13:12:18.974Z,6.73
2018-06-30T13:14:47.422Z,6.03
2018-06-30T13:17:15.893Z,6.10
2018-06-30T13:19:44.368Z,6.50
2018-06-30T13:22:13.122Z,6.10
2018-06-30T13:24:41.592Z,6.10
2018-06-30T13:27:10.065Z,6.03
2018-06-30T13:29:38.515Z,6.90
2018-06-30T13:32:07.220Z,6.63
2018-06-30T13:34:35.660Z,6.10
2018-06-30T13:37:04.250Z,6.00
2018-06-30T13:39:32.786Z,5.80
2018-06-30T13:42:01.306Z,6.57
2018-06-30T13:47:37.799Z,7.27
2018-06-30T13:50:06.984Z,7.77
2018-06-30T13:59:19.910Z,7.47
2018-06-30T14:01:48.422Z,7.63
2018-06-30T14:04:16.924Z,6.83
2018-06-30T14:06:45.477Z,7.30
2018-06-30T14:09:14.044Z,7.83
2018-06-30T14:11:42.544Z,7.53
2018-06-30T14:16:34.109Z,7.90
2018-06-30T14:19:02.664Z,8.37
2018-06-30T14:21:31.136Z,7.00
2018-06-30T14:23:59.719Z,7.30
2018-06-30T14:26:28.540Z,7.10
2018-06-30T14:28:57.535Z,6.67
2018-06-30T14:31:26.016Z,7.67
2018-06-30T14:33:54.904Z,7.53
2018-06-30T14:36:23.613Z,6.93
2018-06-30T14:38:54.713Z,7.30
2018-06-30T14:41:28.254Z,7.50
2018-06-30T14:43:56.798Z,7.50
2018-06-30T14:46:25.485Z,8.50
2018-06-30T14:48:54.009Z,7.03
2018-06-30T14:51:22.551Z,8.10
2018-06-30T14:53:51.066Z,7.57
2018-06-30T14:56:20.557Z,7.33
2018-06-30T14:58:49.089Z,7.40
2018-06-30T15:01:17.565Z,7.33
2018-06-30T15:03:46.076Z,7.33
2018-06-30T15:06:14.516Z,7.10
2018-06-30T15:08:42.985Z,6.93
2018-06-30T15:11:16.276Z,7.17
2018-06-30T15:13:49.456Z,7.17
2018-06-30T15:16:22.552Z,7.13
2018-06-30T15:18:51.200Z,6.40
2018-06-30T15:21:20.097Z,7.00
2018-06-30T15:23:48.796Z,6.47
2018-06-30T15:26:23.336Z,7.20
2018-06-30T15:28:54.999Z,6.43
2018-06-30T15:31:28.648Z,7.20
2018-06-30T15:34:04.376Z,6.30
2018-06-30T15:36:38.056Z,6.37
2018-06-30T15:39:10.726Z,6.23
2018-06-30T15:41:43.516Z,6.87
2018-06-30T15:44:16.509Z,7.23
2018-06-30T15:46:45.203Z,6.43
2018-06-30T15:49:13.691Z,6.27
2018-06-30T15:51:42.165Z,6.77
2018-06-30T15:54:10.661Z,6.77
2018-06-30T15:56:39.846Z,6.20
2018-06-30T15:59:08.479Z,6.17
2018-06-30T16:01:37.309Z,6.43
2018-06-30T16:04:06.168Z,5.70
2018-06-30T16:06:34.692Z,6.70
2018-06-30T16:09:05.817Z,6.57
2018-06-30T16:11:34.620Z,6.13
2018-06-30T16:14:04.290Z,6.00
2018-06-30T16:16:32.984Z,6.63
2018-06-30T16:19:01.522Z,5.70
2018-06-30T16:21:30.012Z,5.27
2018-06-30T16:23:58.681Z,5.73
2018-06-30T16:26:27.325Z,5.63
2018-06-30T16:28:55.887Z,6.00
2018-06-30T16:31:25.984Z,6.53
2018-06-30T16:33:57.184Z,5.77
2018-06-30T16:36:25.725Z,5.10
2018-06-30T16:38:54.240Z,5.60
2018-06-30T16:41:22.655Z,5.73
2018-06-30T16:43:51.165Z,5.47
2018-06-30T16:46:19.632Z,5.23
2018-06-30T16:48:48.176Z,5.30
2018-06-30T16:51:16.672Z,6.50
2018-06-30T16:53:45.212Z,5.67
2018-06-30T16:56:13.756Z,5.40
2018-06-30T16:58:42.274Z,5.10
2018-06-30T17:01:10.720Z,5.00
2018-06-30T17:03:39.231Z,6.00
2018-06-30T17:06:07.709Z,5.37
2018-06-30T17:08:36.181Z,5.30
2018-06-30T17:11:04.665Z,5.03
2018-06-30T17:13:33.109Z,5.90
2018-06-30T17:16:01.577Z,5.17
2018-06-30T17:18:30.158Z,4.53
2018-06-30T17:20:58.625Z,5.00
2018-06-30T17:23:27.149Z,4.30
2018-06-30T17:25:56.025Z,3.50
2018-06-30T17:28:24.444Z,4.10
2018-06-30T17:30:52.900Z,3.73
2018-06-30T17:33:21.361Z,3.63
2018-06-30T17:35:49.813Z,3.17
2018-06-30T17:38:18.289Z,3.80
2018-06-30T17:40:46.825Z,2.70
2018-06-30T17:43:15.306Z,2.60
2018-06-30T17:45:43.778Z,3.00
2018-06-30T17:48:12.227Z,2.70
2018-06-30T17:50:40.725Z,2.47
2018-06-30T17:53:09.765Z,2.50
2018-06-30T17:55:38.423Z,2.30
2018-06-30T17:58:06.901Z,2.63
2018-06-30T18:00:35.395Z,2.30
2018-06-30T18:03:04.181Z,1.93
2018-06-30T18:05:32.662Z,2.10
2018-06-30T18:08:01.345Z,2.30
2018-06-30T18:10:29.983Z,2.33
2018-06-30T18:12:58.461Z,2.00
2018-06-30T18:15:26.979Z,1.97
2018-06-30T18:17:55.590Z,2.10
2018-06-30T18:20:24.077Z,1.63
2018-06-30T18:22:52.680Z,1.90
2018-06-30T18:25:21.240Z,1.73
2018-06-30T18:27:49.672Z,1.60
2018-06-30T18:30:18.268Z,1.60
2018-06-30T18:32:46.865Z,1.70
2018-06-30T18:35:15.040Z,1.53
2018-06-30T18:37:43.510Z,1.73
2018-06-30T18:40:12.008Z,2.00
2018-06-30T18:42:40.629Z,1.50
2018-06-30T18:45:09.137Z,2.40
2018-06-30T18:47:37.586Z,1.63
2018-06-30T18:50:06.377Z,1.77
2018-06-30T18:52:34.977Z,1.50
2018-06-30T18:55:03.521Z,2.20
2018-06-30T18:57:31.978Z,1.33
2018-06-30T19:00:00.501Z,1.40
2018-06-30T19:02:29.005Z,1.10
2018-06-30T19:04:57.538Z,1.60
2018-06-30T19:07:26.112Z,1.70
2018-06-30T19:09:54.637Z,1.27
2018-06-30T19:12:23.142Z,1.40
2018-06-30T19:14:51.669Z,1.27
2018-06-30T19:17:20.209Z,1.47
2018-06-30T19:19:48.850Z,1.20
2018-06-30T19:22:17.377Z,1.20
2018-06-30T19:24:45.852Z,1.30
2018-06-30T19:27:14.361Z,1.50
2018-06-30T19:29:42.896Z,1.47
2018-06-30T19:32:11.417Z,1.10
2018-06-30T19:34:39.921Z,0.90
2018-06-30T19:37:08.472Z,1.10
2018-06-30T19:39:36.947Z,0.90
2018-06-30T19:42:06.113Z,1.63
2018-06-30T19:44:34.592Z,1.50
2018-06-30T19:47:03.396Z,1.17
2018-06-30T19:49:31.885Z,1.53
2018-06-30T19:52:00.401Z,1.20
2018-06-30T19:54:28.868Z,1.23
2018-06-30T19:56:57.399Z,1.20
2018-06-30T19:59:26.113Z,1.60
2018-06-30T20:01:54.632Z,1.40
2018-06-30T20:04:23.132Z,1.40
2018-06-30T20:06:51.841Z,1.50
2018-06-30T20:09:20.048Z,1.33
2018-06-30T20:11:48.661Z,1.70
2018-06-30T20:14:17.140Z,1.20
2018-06-30T20:16:45.642Z,1.33
2018-06-30T20:19:13.801Z,1.10
2018-06-30T20:21:42.328Z,1.30
2018-06-30T20:24:10.816Z,1.23
2018-06-30T20:26:39.470Z,1.07
2018-06-30T20:29:08.000Z,1.40
2018-06-30T20:31:36.516Z,1.30
2018-06-30T20:34:05.133Z,1.30
2018-06-30T20:36:33.661Z,1.37
2018-06-30T20:39:02.261Z,1.30
2018-06-30T20:41:30.837Z,1.20
2018-06-30T20:43:59.324Z,1.37
2018-06-30T20:46:27.924Z,1.20
2018-06-30T20:48:56.415Z,1.00
2018-06-30T20:51:24.933Z,1.30
2018-06-30T20:53:53.416Z,1.20
2018-06-30T20:56:21.990Z,1.20
2018-06-30T20:58:50.480Z,1.00
2018-06-30T21:01:19.047Z,1.00
2018-06-30T21:03:47.531Z,1.10
2018-06-30T21:06:16.012Z,1.20
2018-06-30T21:08:44.529Z,1.10
2018-06-30T21:11:13.021Z,1.10
2018-06-30T21:13:41.578Z,1.00
2018-06-30T21:16:10.092Z,0.90
2018-06-30T21:18:38.584Z,0.80
2018-06-30T21:21:07.120Z,1.20
2018-06-30T21:23:35.651Z,1.17
2018-06-30T21:26:04.160Z,1.10
2018-06-30T21:28:32.400Z,1.63
2018-06-30T21:31:00.887Z,1.10
2018-06-30T21:33:29.402Z,1.00
2018-06-30T21:35:57.915Z,1.30
2018-06-30T21:38:26.412Z,1.30
2018-06-30T21:40:54.905Z,1.00
2018-06-30T21:43:23.396Z,1.00
2018-06-30T21:45:51.867Z,1.00
2018-06-30T21:48:20.393Z,1.90
2018-06-30T21:50:48.902Z,1.50
2018-06-30T21:53:17.416Z,1.53
2018-06-30T21:55:45.889Z,1.10
2018-06-30T21:58:14.393Z,1.23
2018-06-30T22:00:51.093Z,0.80
2018-06-30T22:03:24.939Z,1.13
2018-06-30T22:05:54.840Z,1.00
2018-06-30T22:08:23.549Z,0.93
2018-06-30T22:10:52.042Z,1.03
2018-06-30T22:13:21.219Z,1.33
2018-06-30T22:15:50.425Z,1.10
2018-06-30T22:18:19.332Z,1.20
2018-06-30T22:20:47.792Z,1.00
2018-06-30T22:23:16.264Z,1.07
2018-06-30T22:25:44.708Z,1.00
2018-06-30T22:28:13.202Z,1.33
2018-06-30T22:30:41.660Z,1.47
2018-06-30T22:33:10.132Z,1.00
2018-06-30T22:35:38.613Z,1.00
2018-06-30T22:38:07.092Z,0.90
2018-06-30T22:40:35.576Z,1.00
2018-06-30T22:43:04.138Z,1.00
2018-06-30T22:45:32.611Z,1.37
2018-06-30T22:48:01.080Z,1.37
2018-06-30T22:50:29.551Z,1.10
2018-06-30T22:52:57.775Z,1.20
2018-06-30T22:55:26.241Z,0.87
2018-06-30T22:57:54.732Z,1.17
2018-06-30T23:00:23.306Z,0.93
2018-06-30T23:02:51.841Z,1.40
2018-06-30T23:05:20.385Z,1.00
2018-06-30T23:07:48.928Z,1.10
2018-06-30T23:10:17.439Z,0.90
2018-06-30T23:12:46.045Z,1.00
2018-06-30T23:15:14.561Z,1.00
2018-06-30T23:17:43.028Z,1.77
2018-06-30T23:20:11.557Z,0.90
2018-06-30T23:23:12.021Z,0.80
2018-06-30T23:25:41.282Z,1.10
2018-06-30T23:28:09.892Z,0.87
2018-06-30T23:30:38.400Z,0.90
2018-06-30T23:33:06.975Z,1.00
2018-06-30T23:35:35.486Z,1.30
2018-06-30T23:38:04.464Z,1.10
2018-06-30T23:40:32.996Z,1.00
2018-06-30T23:43:01.489Z,0.90
2018-06-30T23:45:30.040Z,1.20
2018-06-30T23:47:58.537Z,1.10
2018-06-30T23:50:27.090Z,1.40
2018-06-30T23:52:55.584Z,0.90
2018-06-30T23:55:24.113Z,0.90
2018-06-30T23:57:52.636Z,0.90
